Time;durP1;ratioP1;P1;durP2;ratioP2;P2;SDS_P1;SDS_P2;PMS_P1;PMS_P2;Temp;Humidity;BMP_temperature;BMP_pressure;BME280_temperature;BME280_humidity;BME280_pressure;Samples;Min_cycle;Max_cycle;Signal;HPM_P1;HPM_P2
2023/02/03 00:00:36;;;;;;;0.80;0.20;;;;;;;;;;4146017;28;20050;-42
2023/02/03 00:02:37;;;;;;;0.45;0.30;;;;;;;;;;4129498;28;20085;-43
2023/02/03 00:04:39;;;;;;;1.27;0.40;;;;;;;;;;4149267;28;20053;-43
2023/02/03 00:06:40;;;;;;;0.30;0.28;;;;;;;;;;4148919;28;20076;-42
2023/02/03 00:08:41;;;;;;;0.95;0.40;;;;;;;;;;4143629;28;20073;-42
2023/02/03 00:10:42;;;;;;;0.68;0.43;;;;;;;;;;4146809;28;20104;-42
2023/02/03 00:12:44;;;;;;;0.30;0.30;;;;;;;;;;4148794;28;20425;-43
2023/02/03 00:14:45;;;;;;;0.30;0.20;;;;;;;;;;4148822;28;20054;-42
2023/02/03 00:16:47;;;;;;;0.95;0.50;;;;;;;;;;4149106;28;20100;-42
2023/02/03 00:18:48;;;;;;;0.93;0.45;;;;;;;;;;4149021;28;20054;-43
2023/02/03 00:20:50;;;;;;;0.25;0.20;;;;;;;;;;4148893;28;20054;-42
2023/02/03 00:22:51;;;;;;;0.52;0.40;;;;;;;;;;4131760;28;20109;-44
2023/02/03 00:24:53;;;;;;;0.40;0.40;;;;;;;;;;4130872;28;20088;-42
2023/02/03 00:26:54;;;;;;;0.70;0.38;;;;;;;;;;4148782;28;20416;-43
2023/02/03 00:28:58;;;;;;;1.10;0.40;;;;;;;;;;4148644;28;20061;-43
2023/02/03 00:30:59;;;;;;;0.85;0.40;;;;;;;;;;4148796;28;20046;-41
2023/02/03 00:33:02;;;;;;;0.10;0.10;;;;;;;;;;4148795;28;20084;-42
2023/02/03 00:35:04;;;;;;;0.30;0.30;;;;;;;;;;4148537;28;20053;-42
2023/02/03 00:37:05;;;;;;;0.70;0.40;;;;;;;;;;4146307;28;20065;-42
2023/02/03 00:39:06;;;;;;;0.70;0.40;;;;;;;;;;4145271;28;20049;-42
2023/02/03 00:41:08;;;;;;;0.40;0.28;;;;;;;;;;4148446;28;20111;-42
2023/02/03 00:43:09;;;;;;;0.77;0.43;;;;;;;;;;4148498;28;20058;-43
2023/02/03 00:45:10;;;;;;;0.98;0.60;;;;;;;;;;4148706;28;20429;-42
2023/02/03 00:47:12;;;;;;;0.88;0.50;;;;;;;;;;4148773;28;20061;-42
2023/02/03 00:49:14;;;;;;;1.33;0.50;;;;;;;;;;4130832;28;20521;-42
2023/02/03 00:51:15;;;;;;;0.63;0.47;;;;;;;;;;4131269;28;20053;-43
2023/02/03 00:53:16;;;;;;;0.47;0.38;;;;;;;;;;4148468;28;20065;-42
2023/02/03 00:55:17;;;;;;;1.13;0.40;;;;;;;;;;4147903;28;20053;-42
2023/02/03 00:57:19;;;;;;;0.90;0.50;;;;;;;;;;4148014;28;20421;-41
2023/02/03 00:59:21;;;;;;;0.47;0.30;;;;;;;;;;4122520;28;20451;-42
2023/02/03 01:01:22;;;;;;;0.75;0.50;;;;;;;;;;4148037;28;20104;-42
2023/02/03 01:03:24;;;;;;;0.32;0.22;;;;;;;;;;4148251;28;20474;-42
2023/02/03 01:05:25;;;;;;;1.00;0.50;;;;;;;;;;4130534;28;20553;-42
2023/02/03 01:07:31;;;;;;;0.98;0.50;;;;;;;;;;4130117;28;20050;-42
2023/02/03 01:09:33;;;;;;;0.52;0.32;;;;;;;;;;4126402;28;20061;-42
2023/02/03 01:11:35;;;;;;;0.60;0.50;;;;;;;;;;4148066;28;20053;-42
2023/02/03 01:13:37;;;;;;;0.40;0.30;;;;;;;;;;4148181;28;20185;-42
2023/02/03 01:15:47;;;;;;;0.80;0.40;;;;;;;;;;4130494;28;20489;-42
2023/02/03 01:17:48;;;;;;;0.57;0.43;;;;;;;;;;4130673;28;20053;-42
2023/02/03 01:19:50;;;;;;;0.63;0.30;;;;;;;;;;4148124;28;20057;-43
2023/02/03 01:21:52;;;;;;;0.60;0.30;;;;;;;;;;4148134;28;20049;-44
2023/02/03 01:23:54;;;;;;;0.77;0.40;;;;;;;;;;4140166;28;20104;-43
2023/02/03 01:25:55;;;;;;;1.33;0.55;;;;;;;;;;4147487;28;20065;-42
2023/02/03 01:27:56;;;;;;;0.80;0.50;;;;;;;;;;4130547;28;20414;-43
2023/02/03 01:29:58;;;;;;;0.30;0.30;;;;;;;;;;4148061;28;20054;-42
2023/02/03 01:32:00;;;;;;;0.70;0.30;;;;;;;;;;4147614;28;20488;-42
2023/02/03 01:34:02;;;;;;;0.73;0.30;;;;;;;;;;4130803;28;20062;-42
2023/02/03 01:36:04;;;;;;;1.05;0.45;;;;;;;;;;4147497;28;20054;-42
2023/02/03 01:38:05;;;;;;;0.22;0.20;;;;;;;;;;4147744;28;20054;-43
2023/02/03 01:40:07;;;;;;;1.08;0.40;;;;;;;;;;4129697;28;20050;-42
2023/02/03 01:42:12;;;;;;;0.40;0.30;;;;;;;;;;4147871;28;20057;-43
2023/02/03 01:44:32;;;;;;;0.40;0.20;;;;;;;;;;4145520;28;20108;-41
2023/02/03 01:46:38;;;;;;;0.73;0.47;;;;;;;;;;4147494;28;20092;-41
2023/02/03 01:48:39;;;;;;;1.10;0.50;;;;;;;;;;4147787;28;20061;-42
2023/02/03 01:50:40;;;;;;;0.73;0.40;;;;;;;;;;4147715;28;20104;-43
2023/02/03 01:52:43;;;;;;;0.40;0.30;;;;;;;;;;4147448;28;20061;-42
2023/02/03 01:54:47;;;;;;;0.75;0.40;;;;;;;;;;4146915;28;20053;-42
2023/02/03 01:57:00;;;;;;;0.68;0.30;;;;;;;;;;4114181;28;20109;-42
2023/02/03 01:59:02;;;;;;;0.82;0.30;;;;;;;;;;4113677;28;20431;-42
2023/02/03 02:01:04;;;;;;;0.90;0.40;;;;;;;;;;4113911;28;20051;-42
2023/02/03 02:03:06;;;;;;;0.93;0.50;;;;;;;;;;4129830;28;20057;-42
2023/02/03 02:05:33;;;;;;;0.50;0.40;;;;;;;;;;4130185;28;20097;-42
2023/02/03 02:07:36;;;;;;;0.50;0.43;;;;;;;;;;4129697;28;20600;-43
2023/02/03 02:09:37;;;;;;;0.70;0.40;;;;;;;;;;4135253;28;20062;-42
2023/02/03 02:11:39;;;;;;;0.47;0.30;;;;;;;;;;4114093;28;20050;-42
2023/02/03 02:13:44;;;;;;;0.50;0.40;;;;;;;;;;4127256;28;20061;-42
2023/02/03 02:15:59;;;;;;;0.70;0.40;;;;;;;;;;4113597;28;20478;-42
2023/02/03 02:18:38;;;;;;;0.88;0.43;;;;;;;;;;4113982;28;20059;-42
2023/02/03 02:20:43;;;;;;;0.70;0.40;;;;;;;;;;4139258;28;20053;-42
2023/02/03 02:23:24;;;;;;;0.82;0.40;;;;;;;;;;4114020;28;20558;-42
2023/02/03 02:25:52;;;;;;;0.60;0.30;;;;;;;;;;4146369;28;20057;-44
2023/02/03 02:28:12;;;;;;;1.98;0.68;;;;;;;;;;4098135;28;20051;-43
2023/02/03 02:30:41;;;;;;;0.50;0.40;;;;;;;;;;4129367;28;20046;-42
2023/02/03 02:33:12;;;;;;;0.60;0.40;;;;;;;;;;4113796;28;20051;-43
2023/02/03 02:35:32;;;;;;;0.50;0.50;;;;;;;;;;4144818;28;20096;-42
2023/02/03 02:37:57;;;;;;;0.40;0.40;;;;;;;;;;4112088;28;20081;-42
2023/02/03 02:40:16;;;;;;;0.32;0.32;;;;;;;;;;4112997;28;20438;-41
2023/02/03 02:42:28;;;;;;;0.47;0.35;;;;;;;;;;4129728;28;20050;-42
2023/02/03 02:44:36;;;;;;;0.85;0.70;;;;;;;;;;4119264;28;20082;-41
2023/02/03 02:46:48;;;;;;;0.52;0.28;;;;;;;;;;4129223;28;20050;-42
2023/02/03 02:49:17;;;;;;;0.52;0.32;;;;;;;;;;4129800;28;20108;-42
2023/02/03 02:51:20;;;;;;;0.40;0.35;;;;;;;;;;4136685;28;20045;-42
2023/02/03 02:53:24;;;;;;;0.60;0.40;;;;;;;;;;4129125;28;20065;-42
2023/02/03 02:55:31;;;;;;;0.70;0.50;;;;;;;;;;4113224;28;20090;-42
2023/02/03 02:57:36;;;;;;;0.40;0.40;;;;;;;;;;4113814;28;20105;-42
2023/02/03 02:59:38;;;;;;;0.60;0.50;;;;;;;;;;4097133;29;20062;-42
2023/02/03 03:01:40;;;;;;;0.45;0.40;;;;;;;;;;4128129;28;20434;-43
2023/02/03 03:03:44;;;;;;;1.05;0.50;;;;;;;;;;4129240;28;20066;-41
2023/02/03 03:05:55;;;;;;;0.80;0.35;;;;;;;;;;4112096;28;20584;-42
2023/02/03 03:08:01;;;;;;;0.50;0.40;;;;;;;;;;4152362;28;20139;-42
2023/02/03 03:10:07;;;;;;;0.40;0.30;;;;;;;;;;4128795;28;20062;-42
2023/02/03 03:12:15;;;;;;;0.57;0.47;;;;;;;;;;4128989;28;20050;-42
2023/02/03 03:14:18;;;;;;;0.55;0.43;;;;;;;;;;4113022;28;20181;-42
2023/02/03 03:16:23;;;;;;;0.43;0.35;;;;;;;;;;4146605;28;20057;-42
2023/02/03 03:18:48;;;;;;;0.80;0.43;;;;;;;;;;4129484;28;20062;-42
2023/02/03 03:20:50;;;;;;;0.40;0.40;;;;;;;;;;4113072;28;20063;-42
2023/02/03 03:23:06;;;;;;;0.95;0.50;;;;;;;;;;4112871;28;20113;-41
2023/02/03 03:25:18;;;;;;;0.52;0.32;;;;;;;;;;4146210;28;20054;-42
2023/02/03 03:27:25;;;;;;;0.50;0.50;;;;;;;;;;4129142;28;20480;-42
2023/02/03 03:29:34;;;;;;;0.70;0.50;;;;;;;;;;4128827;28;20481;-42
2023/02/03 03:31:35;;;;;;;0.50;0.40;;;;;;;;;;4146820;28;20053;-42
2023/02/03 03:33:36;;;;;;;0.80;0.50;;;;;;;;;;4112942;28;20051;-42
2023/02/03 03:35:44;;;;;;;1.25;0.50;;;;;;;;;;4146390;28;20054;-42
2023/02/03 03:37:58;;;;;;;0.57;0.40;;;;;;;;;;4146987;28;20104;-42
2023/02/03 03:40:06;;;;;;;0.20;0.20;;;;;;;;;;4149503;28;20100;-42
2023/02/03 03:42:28;;;;;;;0.63;0.30;;;;;;;;;;4149530;28;20460;-42
2023/02/03 03:44:35;;;;;;;0.68;0.45;;;;;;;;;;4136244;28;20053;-42
2023/02/03 03:46:50;;;;;;;1.50;0.60;;;;;;;;;;4132297;28;20058;-42
2023/02/03 03:48:55;;;;;;;0.60;0.40;;;;;;;;;;4149405;28;20081;-42
2023/02/03 03:51:03;;;;;;;0.70;0.45;;;;;;;;;;4149695;28;20096;-42
2023/02/03 03:53:05;;;;;;;1.08;0.50;;;;;;;;;;4149787;28;20046;-43
2023/02/03 03:55:09;;;;;;;0.30;0.30;;;;;;;;;;4131779;28;20046;-41
2023/02/03 03:57:15;;;;;;;0.40;0.40;;;;;;;;;;4129459;28;20059;-42
2023/02/03 03:59:19;;;;;;;0.70;0.45;;;;;;;;;;4120109;28;20054;-42
2023/02/03 04:01:21;;;;;;;0.45;0.35;;;;;;;;;;4132154;28;20054;-42
2023/02/03 04:03:26;;;;;;;0.85;0.52;;;;;;;;;;4131844;28;20062;-43
2023/02/03 04:05:27;;;;;;;0.60;0.35;;;;;;;;;;4131495;28;20572;-42
2023/02/03 04:07:41;;;;;;;1.13;0.70;;;;;;;;;;4149121;28;20057;-42
2023/02/03 04:09:43;;;;;;;1.20;0.55;;;;;;;;;;4131492;28;20198;-42
2023/02/03 04:12:03;;;;;;;0.68;0.40;;;;;;;;;;4148905;28;20386;-41
2023/02/03 04:14:04;;;;;;;0.65;0.40;;;;;;;;;;4136891;28;20077;-42
2023/02/03 04:16:05;;;;;;;0.50;0.40;;;;;;;;;;4149195;28;20054;-42
2023/02/03 04:18:09;;;;;;;0.80;0.60;;;;;;;;;;4149089;28;20049;-42
2023/02/03 04:20:11;;;;;;;0.60;0.50;;;;;;;;;;4131151;28;20058;-42
2023/02/03 04:22:12;;;;;;;0.70;0.40;;;;;;;;;;4149001;28;20057;-42
2023/02/03 04:24:14;;;;;;;1.05;0.40;;;;;;;;;;4148468;28;20064;-43
2023/02/03 04:26:15;;;;;;;0.57;0.47;;;;;;;;;;4131836;28;20050;-43
2023/02/03 04:28:16;;;;;;;0.50;0.50;;;;;;;;;;4149015;28;20058;-42
2023/02/03 04:30:18;;;;;;;0.88;0.47;;;;;;;;;;4148854;28;20054;-42
2023/02/03 04:32:19;;;;;;;1.10;0.60;;;;;;;;;;4148739;28;20103;-42
2023/02/03 04:34:21;;;;;;;0.75;0.50;;;;;;;;;;4148661;28;20196;-42
2023/02/03 04:36:22;;;;;;;0.98;0.65;;;;;;;;;;4152634;28;20064;-42
2023/02/03 04:38:23;;;;;;;1.00;0.50;;;;;;;;;;4149762;28;20053;-44
2023/02/03 04:40:25;;;;;;;1.70;0.45;;;;;;;;;;4131055;28;20410;-42
2023/02/03 04:42:27;;;;;;;0.77;0.35;;;;;;;;;;4148949;28;20092;-42
2023/02/03 04:44:28;;;;;;;0.40;0.28;;;;;;;;;;4148552;28;20512;-42
2023/02/03 04:46:29;;;;;;;0.52;0.38;;;;;;;;;;4148322;28;20076;-42
2023/02/03 04:48:30;;;;;;;1.25;0.40;;;;;;;;;;4131296;28;20452;-42
2023/02/03 04:50:32;;;;;;;0.32;0.32;;;;;;;;;;4147460;28;20058;-42
2023/02/03 04:52:33;;;;;;;0.77;0.50;;;;;;;;;;4148897;28;20104;-42
2023/02/03 04:54:34;;;;;;;2.17;0.60;;;;;;;;;;4130554;28;20112;-42
2023/02/03 04:56:36;;;;;;;1.63;0.40;;;;;;;;;;4148512;28;20484;-42
2023/02/03 04:58:38;;;;;;;0.80;0.57;;;;;;;;;;4148787;28;20050;-42
2023/02/03 05:00:40;;;;;;;1.85;0.40;;;;;;;;;;4148189;28;20045;-42
2023/02/03 05:02:42;;;;;;;2.42;0.68;;;;;;;;;;4148625;28;20057;-42
2023/02/03 05:04:43;;;;;;;2.42;0.50;;;;;;;;;;4096811;29;20059;-42
2023/02/03 05:06:44;;;;;;;1.23;0.70;;;;;;;;;;4143400;28;20057;-42
2023/02/03 05:08:46;;;;;;;0.82;0.50;;;;;;;;;;4114974;28;20055;-42
2023/02/03 05:10:47;;;;;;;0.82;0.50;;;;;;;;;;4130416;28;20498;-42
2023/02/03 05:12:49;;;;;;;0.60;0.38;;;;;;;;;;4147695;28;20054;-42
2023/02/03 05:14:50;;;;;;;1.25;0.60;;;;;;;;;;4130896;28;20461;-43
2023/02/03 05:16:51;;;;;;;0.52;0.40;;;;;;;;;;4148374;28;20116;-42
2023/02/03 05:18:53;;;;;;;0.70;0.60;;;;;;;;;;4148117;28;20111;-42
2023/02/03 05:20:54;;;;;;;0.88;0.40;;;;;;;;;;4147715;28;20098;-41
2023/02/03 05:22:57;;;;;;;1.05;0.52;;;;;;;;;;4148055;28;20058;-42
2023/02/03 05:24:58;;;;;;;0.50;0.35;;;;;;;;;;4130267;28;20149;-42
2023/02/03 05:27:00;;;;;;;0.85;0.57;;;;;;;;;;4148087;28;20489;-42
2023/02/03 05:29:02;;;;;;;1.10;0.57;;;;;;;;;;4130422;28;20116;-43
2023/02/03 05:31:03;;;;;;;0.47;0.30;;;;;;;;;;4130192;28;20445;-42
2023/02/03 05:33:04;;;;;;;0.70;0.40;;;;;;;;;;4148150;28;20046;-43
2023/02/03 05:35:06;;;;;;;0.68;0.50;;;;;;;;;;4147794;28;20436;-42
2023/02/03 05:37:07;;;;;;;1.30;0.55;;;;;;;;;;4157765;28;20523;-42
2023/02/03 05:39:08;;;;;;;0.65;0.50;;;;;;;;;;4148935;28;20105;-41
2023/02/03 05:43:31;;;;;;;1.52;0.80;;;;;;;;;;4147935;28;20065;-43
2023/02/03 05:45:32;;;;;;;1.55;0.43;;;;;;;;;;4129971;28;20062;-41
2023/02/03 05:47:34;;;;;;;1.30;0.60;;;;;;;;;;4130408;28;20541;-43
2023/02/03 05:49:35;;;;;;;1.05;0.60;;;;;;;;;;4147612;28;20053;-42
2023/02/03 05:51:38;;;;;;;1.00;0.68;;;;;;;;;;4147779;28;20058;-41
2023/02/03 05:53:40;;;;;;;1.65;0.43;;;;;;;;;;4130360;28;20054;-42
2023/02/03 05:55:41;;;;;;;2.03;0.52;;;;;;;;;;4147206;28;20094;-42
2023/02/03 05:57:42;;;;;;;0.70;0.50;;;;;;;;;;4147652;28;20460;-42
2023/02/03 05:59:43;;;;;;;0.50;0.40;;;;;;;;;;4147572;28;20076;-42
2023/02/03 06:01:45;;;;;;;1.90;0.55;;;;;;;;;;4143619;28;20551;-42
2023/02/03 06:03:47;;;;;;;1.95;0.70;;;;;;;;;;4145115;28;20062;-43
2023/02/03 06:05:48;;;;;;;1.95;0.75;;;;;;;;;;4144993;28;20377;-42
2023/02/03 06:07:50;;;;;;;1.23;0.65;;;;;;;;;;4145393;28;20464;-42
2023/02/03 06:09:51;;;;;;;0.60;0.60;;;;;;;;;;4127737;28;20054;-41
2023/02/03 06:11:53;;;;;;;0.95;0.50;;;;;;;;;;4127619;28;20050;-42
2023/02/03 06:13:55;;;;;;;1.25;0.60;;;;;;;;;;4144883;28;20127;-42
2023/02/03 06:15:56;;;;;;;1.48;0.50;;;;;;;;;;4145397;28;20064;-41
2023/02/03 06:17:58;;;;;;;1.58;0.90;;;;;;;;;;4145464;28;20484;-42
2023/02/03 06:19:59;;;;;;;3.60;0.80;;;;;;;;;;4145095;28;20054;-42
2023/02/03 06:22:00;;;;;;;0.70;0.52;;;;;;;;;;4145087;28;20057;-41
2023/02/03 06:24:02;;;;;;;1.17;0.50;;;;;;;;;;4145441;28;20065;-41
2023/02/03 06:26:03;;;;;;;0.82;0.60;;;;;;;;;;4144666;28;20084;-41
2023/02/03 06:28:05;;;;;;;1.75;0.75;;;;;;;;;;4145138;28;20157;-41
2023/02/03 06:30:07;;;;;;;0.80;0.60;;;;;;;;;;4144805;28;20061;-42
2023/02/03 06:32:08;;;;;;;1.67;0.70;;;;;;;;;;4127411;28;20525;-41
2023/02/03 06:34:10;;;;;;;1.35;0.70;;;;;;;;;;4137535;28;20069;-43
2023/02/03 06:36:11;;;;;;;1.35;0.60;;;;;;;;;;4144721;28;20065;-40
2023/02/03 06:38:13;;;;;;;0.80;0.70;;;;;;;;;;4144584;28;20100;-41
2023/02/03 06:40:14;;;;;;;1.42;0.60;;;;;;;;;;4144485;28;20460;-41
2023/02/03 06:42:16;;;;;;;1.10;0.70;;;;;;;;;;4145423;28;20493;-41
2023/02/03 06:44:17;;;;;;;1.25;0.80;;;;;;;;;;4150061;28;20068;-41
2023/02/03 06:46:19;;;;;;;1.02;0.60;;;;;;;;;;4144864;28;20104;-42
2023/02/03 06:48:20;;;;;;;1.48;0.95;;;;;;;;;;4127104;28;20066;-41
2023/02/03 06:50:22;;;;;;;1.88;0.77;;;;;;;;;;4144832;28;20101;-41
2023/02/03 06:52:23;;;;;;;1.45;0.85;;;;;;;;;;4144831;28;20516;-41
2023/02/03 06:54:25;;;;;;;0.93;0.65;;;;;;;;;;4126907;28;20054;-41
2023/02/03 06:56:26;;;;;;;2.75;0.80;;;;;;;;;;4144443;28;20057;-41
2023/02/03 06:58:28;;;;;;;1.88;0.68;;;;;;;;;;4144717;28;20066;-42
2023/02/03 07:00:29;;;;;;;2.08;0.60;;;;;;;;;;4144218;28;20064;-40
2023/02/03 07:02:30;;;;;;;1.15;0.68;;;;;;;;;;4143798;28;20112;-40
2023/02/03 07:04:32;;;;;;;3.17;0.88;;;;;;;;;;4150598;28;20099;-40
2023/02/03 07:06:33;;;;;;;2.90;0.93;;;;;;;;;;4127624;28;20058;-40
2023/02/03 07:08:34;;;;;;;2.25;0.75;;;;;;;;;;4144675;28;20448;-42
2023/02/03 07:10:36;;;;;;;2.60;0.70;;;;;;;;;;4144284;28;20089;-41
2023/02/03 07:12:37;;;;;;;2.67;1.17;;;;;;;;;;4144380;28;20117;-41
2023/02/03 07:14:39;;;;;;;3.30;0.80;;;;;;;;;;4148029;28;20049;-41
2023/02/03 07:16:40;;;;;;;2.47;1.23;;;;;;;;;;4147957;28;20054;-41
2023/02/03 07:18:42;;;;;;;2.92;1.00;;;;;;;;;;4147945;28;20061;-40
2023/02/03 07:20:43;;;;;;;1.80;0.80;;;;;;;;;;4147488;28;20159;-41
2023/02/03 07:22:50;;;;;;;1.58;0.90;;;;;;;;;;4134789;28;20104;-42
2023/02/03 07:24:52;;;;;;;2.25;1.10;;;;;;;;;;4147076;28;20107;-42
2023/02/03 07:26:53;;;;;;;3.17;1.00;;;;;;;;;;4148063;28;20057;-43
2023/02/03 07:28:55;;;;;;;2.72;0.70;;;;;;;;;;4148064;28;20492;-42
2023/02/03 07:30:56;;;;;;;2.15;0.90;;;;;;;;;;4147769;28;20104;-42
2023/02/03 07:32:57;;;;;;;2.45;0.98;;;;;;;;;;4147905;28;20073;-41
2023/02/03 07:35:00;;;;;;;2.78;1.15;;;;;;;;;;4147655;28;20456;-41
2023/02/03 07:37:01;;;;;;;2.08;0.90;;;;;;;;;;4129886;28;20062;-41
2023/02/03 07:39:02;;;;;;;1.33;0.80;;;;;;;;;;4113895;28;20067;-43
2023/02/03 07:41:04;;;;;;;3.50;0.90;;;;;;;;;;4146855;28;20463;-44
2023/02/03 07:43:06;;;;;;;1.35;0.80;;;;;;;;;;4147423;28;20120;-41
2023/02/03 07:45:09;;;;;;;1.52;0.85;;;;;;;;;;4147401;28;20057;-41
2023/02/03 07:47:10;;;;;;;1.60;0.90;;;;;;;;;;4130167;28;20150;-42
2023/02/03 07:49:12;;;;;;;2.17;1.10;;;;;;;;;;4147314;28;20093;-41
2023/02/03 07:51:14;;;;;;;3.33;1.20;;;;;;;;;;4147612;28;20556;-43
2023/02/03 07:53:16;;;;;;;3.38;1.00;;;;;;;;;;4130233;28;20061;-43
2023/02/03 07:55:17;;;;;;;1.38;0.88;;;;;;;;;;4129014;28;20538;-41
2023/02/03 07:57:18;;;;;;;1.52;1.00;;;;;;;;;;4147177;28;20058;-42
2023/02/03 07:59:20;;;;;;;2.47;1.20;;;;;;;;;;4147210;28;20058;-41
2023/02/03 08:01:21;;;;;;;2.90;1.02;;;;;;;;;;4147011;28;20057;-41
2023/02/03 08:03:24;;;;;;;2.80;0.90;;;;;;;;;;4147146;28;20460;-41
2023/02/03 08:05:25;;;;;;;6.45;1.27;;;;;;;;;;4146479;28;20105;-42
2023/02/03 08:07:26;;;;;;;2.10;1.10;;;;;;;;;;4147305;28;20583;-42
2023/02/03 08:09:27;;;;;;;2.10;1.33;;;;;;;;;;4129373;28;20058;-41
2023/02/03 08:11:29;;;;;;;2.47;1.08;;;;;;;;;;4147067;28;20072;-41
2023/02/03 08:13:30;;;;;;;1.55;1.00;;;;;;;;;;4146258;28;20053;-41
2023/02/03 08:15:31;;;;;;;1.42;1.00;;;;;;;;;;4147076;28;20502;-42
2023/02/03 08:17:33;;;;;;;3.28;1.02;;;;;;;;;;4129783;28;20066;-43
2023/02/03 08:19:34;;;;;;;3.90;0.95;;;;;;;;;;4145897;28;20068;-41
2023/02/03 08:21:35;;;;;;;1.25;0.80;;;;;;;;;;4129087;28;20105;-41
2023/02/03 08:23:37;;;;;;;1.85;1.10;;;;;;;;;;4146529;28;20461;-41
2023/02/03 08:25:39;;;;;;;1.65;1.10;;;;;;;;;;4146046;28;20490;-41
2023/02/03 08:27:41;;;;;;;1.20;0.90;;;;;;;;;;4129280;28;20062;-41
2023/02/03 08:29:42;;;;;;;1.17;0.98;;;;;;;;;;4146313;28;20112;-41
2023/02/03 08:31:44;;;;;;;0.98;0.88;;;;;;;;;;4146195;28;20050;-41
2023/02/03 08:33:45;;;;;;;1.20;1.05;;;;;;;;;;4129305;28;20185;-45
2023/02/03 08:35:47;;;;;;;6.30;0.90;;;;;;;;;;4146504;28;20061;-44
2023/02/03 08:37:48;;;;;;;1.30;1.10;;;;;;;;;;4146090;28;20516;-44
2023/02/03 08:39:51;;;;;;;1.67;1.00;;;;;;;;;;4145726;28;20058;-44
2023/02/03 08:41:52;;;;;;;2.72;0.80;;;;;;;;;;4129115;28;20062;-43
2023/02/03 08:43:54;;;;;;;2.20;1.00;;;;;;;;;;4143685;28;20111;-41
2023/02/03 08:45:55;;;;;;;2.25;1.00;;;;;;;;;;4145765;28;20058;-42
2023/02/03 08:47:57;;;;;;;1.33;0.90;;;;;;;;;;4145575;28;20057;-45
2023/02/03 08:49:58;;;;;;;2.60;0.85;;;;;;;;;;4146176;28;20056;-43
2023/02/03 08:52:00;;;;;;;1.85;0.70;;;;;;;;;;4146142;28;20053;-41
2023/02/03 08:54:01;;;;;;;1.17;0.80;;;;;;;;;;4146698;28;20060;-42
2023/02/03 08:56:05;;;;;;;1.63;0.93;;;;;;;;;;4128258;28;20521;-42
2023/02/03 08:58:06;;;;;;;3.28;1.17;;;;;;;;;;4128941;28;20062;-43
2023/02/03 09:00:08;;;;;;;2.53;0.98;;;;;;;;;;4146539;28;20432;-43
2023/02/03 09:02:14;;;;;;;1.90;0.98;;;;;;;;;;4145425;28;20060;-43
2023/02/03 09:04:18;;;;;;;1.60;1.02;;;;;;;;;;4145530;28;20076;-44
2023/02/03 09:06:21;;;;;;;1.08;0.70;;;;;;;;;;4146064;28;20100;-42
2023/02/03 09:08:22;;;;;;;1.50;0.90;;;;;;;;;;4145100;28;20057;-43
2023/02/03 09:10:24;;;;;;;1.58;0.90;;;;;;;;;;4145627;28;20165;-43
2023/02/03 09:12:25;;;;;;;1.13;0.75;;;;;;;;;;4132453;28;20501;-47
2023/02/03 09:14:31;;;;;;;2.38;1.00;;;;;;;;;;4128559;28;20054;-44
2023/02/03 09:16:33;;;;;;;0.77;0.50;;;;;;;;;;4128486;28;20073;-42
2023/02/03 09:18:35;;;;;;;1.30;0.75;;;;;;;;;;4145389;28;20057;-46
2023/02/03 09:20:36;;;;;;;1.20;0.60;;;;;;;;;;4145461;28;20057;-44
2023/02/03 09:22:38;;;;;;;0.98;0.75;;;;;;;;;;4118810;28;20054;-48
2023/02/03 09:24:40;;;;;;;3.22;0.82;;;;;;;;;;4127646;28;20572;-45
2023/02/03 09:26:41;;;;;;;1.15;0.70;;;;;;;;;;4128670;28;20166;-44
2023/02/03 09:28:42;;;;;;;1.33;0.70;;;;;;;;;;4145779;28;20124;-45
2023/02/03 09:30:44;;;;;;;1.17;0.70;;;;;;;;;;4128148;28;20058;-43
2023/02/03 09:32:52;;;;;;;2.75;0.70;;;;;;;;;;4148294;28;20557;-43
2023/02/03 09:34:54;;;;;;;1.08;0.68;;;;;;;;;;4144787;28;20049;-45
2023/02/03 09:36:56;;;;;;;2.85;0.75;;;;;;;;;;4127485;28;20437;-40
2023/02/03 09:38:57;;;;;;;0.80;0.60;;;;;;;;;;4145787;28;20108;-42
2023/02/03 09:41:02;;;;;;;1.67;0.80;;;;;;;;;;4127767;28;20113;-41
2023/02/03 09:43:17;;;;;;;1.67;0.95;;;;;;;;;;4145715;28;20061;-43
2023/02/03 09:45:27;;;;;;;1.00;0.70;;;;;;;;;;4145430;28;20138;-42
2023/02/03 09:47:32;;;;;;;0.88;0.70;;;;;;;;;;4144987;28;20054;-44
2023/02/03 09:49:46;;;;;;;1.27;0.60;;;;;;;;;;4145415;28;20064;-40
2023/02/03 09:51:56;;;;;;;0.98;0.70;;;;;;;;;;4142463;28;20104;-43
2023/02/03 09:54:18;;;;;;;1.98;0.77;;;;;;;;;;4145538;28;20054;-42
2023/02/03 09:56:30;;;;;;;2.97;0.70;;;;;;;;;;4145788;28;20532;-44
2023/02/03 09:58:33;;;;;;;0.70;0.50;;;;;;;;;;4127995;28;20109;-44
2023/02/03 10:00:46;;;;;;;0.98;0.47;;;;;;;;;;4144689;28;20049;-43
2023/02/03 10:03:06;;;;;;;2.40;0.65;;;;;;;;;;4145208;28;20088;-44
2023/02/03 10:05:23;;;;;;;2.45;0.70;;;;;;;;;;4144624;28;20112;-42
2023/02/03 10:07:50;;;;;;;2.20;0.60;;;;;;;;;;4145380;28;20062;-43
2023/02/03 10:10:03;;;;;;;1.23;0.88;;;;;;;;;;4127617;28;20058;-44
2023/02/03 10:12:10;;;;;;;1.40;0.60;;;;;;;;;;4116403;28;20058;-44
2023/02/03 10:14:11;;;;;;;2.10;0.70;;;;;;;;;;4145080;28;20394;-42
2023/02/03 10:16:41;;;;;;;2.53;0.50;;;;;;;;;;4145533;28;20058;-43
2023/02/03 10:18:49;;;;;;;1.45;0.85;;;;;;;;;;4111915;28;20199;-42
2023/02/03 10:20:54;;;;;;;1.02;0.65;;;;;;;;;;4127510;28;20054;-43
2023/02/03 10:23:02;;;;;;;3.25;0.70;;;;;;;;;;4127651;28;20058;-43
2023/02/03 10:25:12;;;;;;;2.30;0.70;;;;;;;;;;4127082;28;20061;-43
2023/02/03 10:27:18;;;;;;;1.42;0.65;;;;;;;;;;4127562;28;20102;-43
2023/02/03 10:29:22;;;;;;;1.40;0.80;;;;;;;;;;4116286;28;20581;-43
2023/02/03 10:31:26;;;;;;;0.95;0.57;;;;;;;;;;4124265;28;20109;-43
2023/02/03 10:33:30;;;;;;;1.25;0.90;;;;;;;;;;4143973;28;20085;-42
2023/02/03 10:35:38;;;;;;;4.68;0.98;;;;;;;;;;4127701;28;20454;-42
2023/02/03 10:37:50;;;;;;;1.83;0.80;;;;;;;;;;4144770;28;20058;-40
2023/02/03 10:39:53;;;;;;;1.75;0.73;;;;;;;;;;4143886;28;20050;-42
2023/02/03 10:41:55;;;;;;;1.13;0.65;;;;;;;;;;4145255;28;20096;-41
2023/02/03 10:43:57;;;;;;;1.25;0.98;;;;;;;;;;4145138;28;20061;-41
2023/02/03 10:45:58;;;;;;;0.77;0.63;;;;;;;;;;4144824;28;20069;-43
2023/02/03 10:48:00;;;;;;;0.60;0.60;;;;;;;;;;4144065;28;20115;-43
2023/02/03 10:50:12;;;;;;;0.50;0.50;;;;;;;;;;4144086;28;20380;-44
2023/02/03 10:52:26;;;;;;;0.65;0.60;;;;;;;;;;4127136;28;20381;-43
2023/02/03 10:54:33;;;;;;;1.05;0.80;;;;;;;;;;4144356;28;20061;-43
2023/02/03 10:56:36;;;;;;;0.90;0.60;;;;;;;;;;4116928;28;20058;-43
2023/02/03 10:58:39;;;;;;;1.77;0.52;;;;;;;;;;4144610;28;20057;-45
2023/02/03 11:00:40;;;;;;;1.23;0.70;;;;;;;;;;4144284;28;20050;-43
2023/02/03 11:02:41;;;;;;;0.88;0.70;;;;;;;;;;4143976;28;20406;-43
2023/02/03 11:04:43;;;;;;;2.60;0.80;;;;;;;;;;4144193;28;20062;-44
2023/02/03 11:07:04;;;;;;;1.13;0.77;;;;;;;;;;4144638;28;20065;-44
2023/02/03 11:09:33;;;;;;;2.47;0.85;;;;;;;;;;4144235;28;20100;-43
2023/02/03 11:11:36;;;;;;;1.00;0.65;;;;;;;;;;4144352;28;20053;-41
2023/02/03 11:13:37;;;;;;;1.27;0.80;;;;;;;;;;4110627;28;20161;-40
2023/02/03 11:16:03;;;;;;;0.80;0.63;;;;;;;;;;4126572;28;20122;-43
2023/02/03 11:18:04;;;;;;;1.17;0.70;;;;;;;;;;4144281;28;20057;-40
2023/02/03 11:20:14;;;;;;;1.13;0.65;;;;;;;;;;4109956;28;20109;-40
2023/02/03 11:22:28;;;;;;;;;;;;;;;;;;4127197;28;20062;-46
2023/02/03 11:24:32;;;;;;;1.20;0.70;;;;;;;;;;4109628;28;19926;-41
2023/02/03 11:26:41;;;;;;;1.48;1.00;;;;;;;;;;4144172;28;20140;-41
2023/02/03 11:28:46;;;;;;;1.30;0.47;;;;;;;;;;4126819;28;20058;-48
2023/02/03 11:30:54;;;;;;;0.95;0.70;;;;;;;;;;4131456;28;20548;-40
2023/02/03 11:32:59;;;;;;;1.02;0.52;;;;;;;;;;4144016;28;20614;-40
2023/02/03 11:35:25;;;;;;;1.23;0.70;;;;;;;;;;4105613;28;20063;-44
2023/02/03 11:37:31;;;;;;;2.50;0.88;;;;;;;;;;4130445;28;20058;-45
2023/02/03 11:39:34;;;;;;;1.88;0.68;;;;;;;;;;4126118;28;20080;-41
2023/02/03 11:41:38;;;;;;;3.45;1.02;;;;;;;;;;4144103;28;20073;-42
2023/02/03 11:43:39;;;;;;;1.67;0.60;;;;;;;;;;4143520;28;20112;-40
2023/02/03 11:45:44;;;;;;;6.35;1.65;;;;;;;;;;4143740;28;20046;-40
2023/02/03 11:47:53;;;;;;;1.17;0.70;;;;;;;;;;4126714;28;20058;-43
2023/02/03 11:49:55;;;;;;;;;;;;;;;;;;4143919;28;20136;-42
2023/02/03 11:52:06;;;;;;;2.80;0.68;;;;;;;;;;4143059;28;19991;-43
2023/02/03 11:54:23;;;;;;;1.35;0.70;;;;;;;;;;4140874;28;20061;-42
2023/02/03 11:57:03;;;;;;;1.08;0.50;;;;;;;;;;4143846;28;20112;-44
2023/02/03 11:59:45;;;;;;;0.80;0.60;;;;;;;;;;4127745;28;20080;-44
2023/02/03 12:02:16;;;;;;;1.15;0.68;;;;;;;;;;4110872;28;20059;-41
2023/02/03 12:04:47;;;;;;;0.85;0.60;;;;;;;;;;4123753;28;20116;-39
2023/02/03 12:06:52;;;;;;;3.78;0.45;;;;;;;;;;4146186;28;20058;-45
2023/02/03 12:09:12;;;;;;;0.82;0.47;;;;;;;;;;4143427;28;20061;-42
2023/02/03 12:11:21;;;;;;;2.28;0.60;;;;;;;;;;4127452;28;20062;-42
2023/02/03 12:13:50;;;;;;;0.53;0.47;;;;;;;;;;4145229;28;20318;-40
2023/02/03 12:16:31;;;;;;;3.50;0.65;;;;;;;;;;4141421;28;20441;-40
2023/02/03 12:19:01;;;;;;;3.28;0.75;;;;;;;;;;4128277;28;20116;-42
2023/02/03 12:21:10;;;;;;;1.63;0.50;;;;;;;;;;4146274;28;20065;-40
2023/02/03 12:23:44;;;;;;;2.95;0.95;;;;;;;;;;4146100;28;20096;-39
2023/02/03 12:26:00;;;;;;;2.17;0.60;;;;;;;;;;4107600;28;20058;-39
2023/02/03 12:28:31;;;;;;;2.38;0.40;;;;;;;;;;4144734;28;20054;-40
2023/02/03 12:30:40;;;;;;;2.00;0.50;;;;;;;;;;4146649;28;20053;-41
2023/02/03 12:32:43;;;;;;;0.90;0.32;;;;;;;;;;4125883;28;20050;-40
2023/02/03 12:34:49;;;;;;;0.85;0.50;;;;;;;;;;4127640;28;20521;-39